createdAt,value
2018-07-28T04:10:24.285Z,512
2018-07-28T04:10:49.798Z,524
2018-07-28T04:11:15.304Z,532
2018-07-28T04:12:38.813Z,552
2018-07-28T04:13:04.327Z,556
2018-07-28T04:13:29.834Z,564
2018-07-28T04:13:55.322Z,568
2018-07-28T04:14:20.870Z,576
2018-07-28T04:14:46.302Z,584
2018-07-28T04:15:11.853Z,588
2018-07-28T04:15:37.394Z,596
2018-07-28T04:16:02.873Z,600
2018-07-28T04:16:28.387Z,608
2018-07-28T04:16:53.921Z,612
2018-07-28T04:17:19.412Z,620
2018-07-28T04:18:28.108Z,640
2018-07-28T04:18:53.617Z,648
2018-07-28T04:19:19.107Z,656
2018-07-28T04:19:44.617Z,668
2018-07-28T04:20:10.081Z,672
2018-07-28T04:20:35.572Z,684
2018-07-28T04:21:01.067Z,696
2018-07-28T04:21:26.575Z,704
2018-07-28T04:21:52.054Z,716
2018-07-28T04:22:17.584Z,724
2018-07-28T04:23:26.263Z,760
2018-07-28T04:23:51.769Z,776
2018-07-28T04:24:17.254Z,784
2018-07-28T04:24:42.757Z,800
2018-07-28T04:25:08.261Z,816
2018-07-28T04:25:33.765Z,828
2018-07-28T04:26:36.884Z,864
2018-07-28T04:27:02.389Z,880
2018-07-28T04:27:27.894Z,900
2018-07-28T04:27:53.373Z,912
2018-07-28T04:28:18.840Z,928
2018-07-28T04:28:44.361Z,940
2018-07-28T04:29:09.840Z,956
2018-07-28T04:29:35.447Z,964
2018-07-28T04:30:00.836Z,976
2018-07-28T04:30:26.340Z,988
2018-07-28T04:30:51.827Z,996
2018-07-28T04:31:17.309Z,1008
2018-07-28T04:31:43.108Z,1020
2018-07-28T04:32:08.599Z,1032
2018-07-28T04:32:34.102Z,1044
2018-07-28T04:32:59.601Z,1052
2018-07-28T04:33:25.077Z,1064
2018-07-28T04:33:50.570Z,1068
2018-07-28T04:34:16.041Z,1072
2018-07-28T04:34:41.595Z,1076
2018-07-28T04:35:07.091Z,1080
2018-07-28T04:35:32.548Z,1084
2018-07-28T04:35:58.086Z,1088
2018-07-28T04:36:23.570Z,1088
2018-07-28T04:36:49.071Z,1084
2018-07-28T04:37:14.600Z,1088
2018-07-28T04:37:40.081Z,1088
2018-07-28T04:38:05.577Z,1092
2018-07-28T04:38:31.055Z,1096
2018-07-28T04:38:56.560Z,1104
2018-07-28T04:39:22.359Z,1104
2018-07-28T04:39:47.902Z,1100
2018-07-28T04:40:13.394Z,1100
2018-07-28T04:40:38.852Z,1112
2018-07-28T04:41:04.338Z,1128
2018-07-28T04:41:29.891Z,1144
2018-07-28T04:41:55.356Z,1164
2018-07-28T04:42:20.856Z,1184
2018-07-28T04:43:39.269Z,1200
2018-07-28T04:44:04.771Z,1200
2018-07-28T04:44:30.261Z,1192
2018-07-28T04:44:55.728Z,1184
2018-07-28T04:45:21.219Z,1180
2018-07-28T04:45:46.748Z,1176
2018-07-28T04:46:12.232Z,1168
2018-07-28T04:46:37.765Z,1156
2018-07-28T04:47:03.262Z,1144
2018-07-28T04:47:28.786Z,1132
2018-07-28T04:47:54.282Z,1128
2018-07-28T04:48:19.769Z,1124
2018-07-28T04:48:45.306Z,1116
2018-07-28T04:49:10.780Z,1120
2018-07-28T04:49:36.262Z,1132
2018-07-28T04:50:01.753Z,1152
2018-07-28T04:50:27.282Z,1168
2018-07-28T04:50:52.779Z,1184
2018-07-28T04:51:18.264Z,1204
2018-07-28T04:51:43.761Z,1228
2018-07-28T04:52:09.258Z,1252
2018-07-28T04:52:34.989Z,1276
2018-07-28T04:53:00.462Z,1304
2018-07-28T04:53:25.995Z,1336
2018-07-28T04:53:51.473Z,1360
2018-07-28T04:54:16.974Z,1376
2018-07-28T04:54:42.625Z,1388
2018-07-28T04:55:08.102Z,1388
2018-07-28T04:55:33.619Z,1388
2018-07-28T04:55:59.156Z,1384
2018-07-28T04:56:24.640Z,1384
2018-07-28T04:56:50.150Z,1388
2018-07-28T04:57:15.671Z,1388
2018-07-28T04:57:41.147Z,1388
2018-07-28T04:58:06.619Z,1392
2018-07-28T04:58:32.123Z,1392
2018-07-28T04:58:57.632Z,1376
2018-07-28T04:59:23.130Z,1368
2018-07-28T04:59:48.602Z,1372
2018-07-28T05:00:14.139Z,1380
2018-07-28T05:00:39.635Z,1372
2018-07-28T05:01:05.120Z,1340
2018-07-28T05:01:30.612Z,1292
2018-07-28T05:01:56.120Z,1224
2018-07-28T05:02:21.628Z,1160
2018-07-28T05:02:47.129Z,1100
2018-07-28T05:03:12.607Z,1032
2018-07-28T05:03:38.109Z,972
2018-07-28T05:04:03.615Z,932
2018-07-28T05:04:29.114Z,896
2018-07-28T05:04:54.614Z,876
2018-07-28T05:05:20.144Z,864
2018-07-28T05:05:45.616Z,852
2018-07-28T05:06:11.135Z,840
2018-07-28T05:06:36.635Z,840
2018-07-28T05:07:02.135Z,856
2018-07-28T05:07:27.717Z,868
2018-07-28T05:07:53.149Z,880
2018-07-28T05:08:18.641Z,896
2018-07-28T05:08:44.135Z,912
2018-07-28T05:09:09.592Z,932
2018-07-28T05:09:35.083Z,952
2018-07-28T05:10:00.603Z,980
2018-07-28T05:10:26.092Z,1004
2018-07-28T05:10:51.565Z,1024
2018-07-28T05:11:17.076Z,1052
2018-07-28T05:11:42.562Z,1076
2018-07-28T05:12:08.033Z,1100
2018-07-28T05:12:33.525Z,1116
2018-07-28T05:12:59.005Z,1124
2018-07-28T05:13:24.548Z,1128
2018-07-28T05:13:50.050Z,1132
2018-07-28T05:14:15.547Z,1128
2018-07-28T05:14:41.213Z,1124
2018-07-28T05:15:06.754Z,1108
2018-07-28T05:15:32.268Z,1100
2018-07-28T05:15:57.780Z,1084
2018-07-28T05:16:23.342Z,1076
2018-07-28T05:16:48.736Z,1064
2018-07-28T05:17:14.218Z,1052
2018-07-28T05:17:39.728Z,1048
2018-07-28T05:18:05.229Z,1048
2018-07-28T05:19:18.521Z,1060
2018-07-28T05:19:44.177Z,1064
2018-07-28T05:20:09.672Z,1072
2018-07-28T05:20:35.211Z,1076
2018-07-28T05:21:00.682Z,1088
2018-07-28T05:21:26.202Z,1096
2018-07-28T05:21:51.716Z,1108
2018-07-28T05:22:17.196Z,1120
2018-07-28T05:22:42.799Z,1120
2018-07-28T05:23:08.370Z,1120
2018-07-28T05:23:33.889Z,1112
2018-07-28T05:23:59.400Z,1104
2018-07-28T05:24:24.878Z,1092
2018-07-28T05:24:50.365Z,1084
2018-07-28T05:25:15.865Z,1084
2018-07-28T05:25:41.368Z,1100
2018-07-28T05:26:06.878Z,1112
2018-07-28T05:26:32.370Z,1132
2018-07-28T05:26:57.864Z,1156
2018-07-28T05:27:23.408Z,1180
2018-07-28T05:27:48.908Z,1212
2018-07-28T05:28:14.394Z,1244
2018-07-28T05:28:39.916Z,1284
2018-07-28T05:29:05.405Z,1336
2018-07-28T05:29:30.897Z,1392
2018-07-28T05:29:56.370Z,1452
2018-07-28T05:30:21.884Z,1504
2018-07-28T05:30:47.346Z,1552
2018-07-28T05:31:12.831Z,1580
2018-07-28T05:31:38.323Z,1600
2018-07-28T05:32:03.842Z,1616
2018-07-28T05:32:29.387Z,1620
2018-07-28T05:32:55.003Z,1604
2018-07-28T05:33:20.504Z,1568
2018-07-28T05:34:44.572Z,1464
2018-07-28T05:35:10.113Z,1456
2018-07-28T05:35:35.631Z,1468
2018-07-28T05:36:01.102Z,1492
2018-07-28T05:36:26.605Z,1528
2018-07-28T05:36:52.133Z,1572
2018-07-28T05:37:17.619Z,1624
2018-07-28T05:37:43.151Z,1688
2018-07-28T05:38:08.683Z,1736
2018-07-28T05:38:34.162Z,1780
2018-07-28T05:38:59.663Z,1820
2018-07-28T05:39:25.146Z,1864
2018-07-28T05:39:50.638Z,1908
2018-07-28T05:40:16.124Z,1948
2018-07-28T05:40:41.639Z,1996
2018-07-28T05:41:07.175Z,2028
2018-07-28T05:41:32.612Z,2068
2018-07-28T05:41:58.174Z,2096
2018-07-28T05:42:23.727Z,2116
2018-07-28T05:42:49.179Z,2132
2018-07-28T05:43:14.686Z,2156
2018-07-28T05:43:40.171Z,2180
2018-07-28T05:44:05.673Z,2212
2018-07-28T05:44:31.202Z,2252
2018-07-28T05:44:56.707Z,2296
2018-07-28T05:45:22.212Z,2348
2018-07-28T05:45:47.722Z,2416
2018-07-28T05:46:13.235Z,2740
2018-07-28T05:46:38.774Z,2508
2018-07-28T05:47:04.247Z,2636
2018-07-28T05:47:29.702Z,2716
2018-07-28T05:47:55.241Z,2796
2018-07-28T05:48:20.762Z,2744
2018-07-28T05:48:46.272Z,2804
2018-07-28T05:49:11.762Z,2896
2018-07-28T05:50:20.537Z,3204
2018-07-28T05:50:46.071Z,3300
2018-07-28T05:51:11.549Z,3408
2018-07-28T05:51:37.074Z,3464
2018-07-28T05:52:02.543Z,3656
2018-07-28T05:52:28.047Z,4076
2018-07-28T05:52:53.518Z,4496
2018-07-28T05:53:19.025Z,4652
2018-07-28T05:54:42.544Z,4788
2018-07-28T05:55:08.038Z,4848
2018-07-28T05:55:33.544Z,4904
2018-07-28T05:56:41.761Z,5024
2018-07-28T05:57:07.257Z,5068
2018-07-28T05:57:32.748Z,5184
2018-07-28T05:57:58.250Z,5220
2018-07-28T05:58:23.728Z,5244
2018-07-28T05:58:49.240Z,5268
2018-07-28T05:59:14.724Z,5264
2018-07-28T05:59:40.244Z,5260
2018-07-28T06:00:05.729Z,5260
2018-07-28T06:00:31.233Z,5264
2018-07-28T06:00:57.007Z,5288
2018-07-28T06:01:22.529Z,5304
2018-07-28T06:01:48.028Z,5316
2018-07-28T06:02:13.623Z,5320
2018-07-28T06:02:39.037Z,5312
2018-07-28T06:03:04.474Z,5320
2018-07-28T06:04:13.239Z,5348
2018-07-28T06:04:38.739Z,5360
2018-07-28T06:05:04.253Z,5380
2018-07-28T06:05:30.171Z,5416
2018-07-28T06:05:55.735Z,5464
2018-07-28T06:06:21.256Z,5516
2018-07-28T06:06:46.975Z,5548
2018-07-28T06:07:13.021Z,5576
2018-07-28T06:07:38.469Z,5592
2018-07-28T06:08:03.974Z,5608
2018-07-28T06:08:29.446Z,5624
2018-07-28T06:08:54.988Z,5632
2018-07-28T06:09:20.444Z,5628
2018-07-28T06:09:45.944Z,5628
2018-07-28T06:10:11.501Z,5660
2018-07-28T06:10:37.300Z,5692
2018-07-28T06:11:02.672Z,5716
2018-07-28T06:11:28.182Z,5728
2018-07-28T06:11:53.675Z,5736
2018-07-28T06:12:19.145Z,5748
2018-07-28T06:12:44.635Z,5792
2018-07-28T06:13:10.143Z,5856
2018-07-28T06:13:35.605Z,5924
2018-07-28T06:14:01.200Z,6024
2018-07-28T06:14:26.622Z,6112
2018-07-28T06:14:52.108Z,6224
2018-07-28T06:15:17.598Z,6388
2018-07-28T06:15:43.104Z,6596
2018-07-28T06:16:08.579Z,6800
2018-07-28T06:16:34.064Z,7004
2018-07-28T06:16:59.569Z,7172
2018-07-28T06:17:25.099Z,7280
2018-07-28T06:17:50.605Z,7360
2018-07-28T06:18:16.218Z,7392
2018-07-28T06:18:41.760Z,7376
2018-07-28T06:19:07.264Z,7384
2018-07-28T06:19:32.818Z,7408
2018-07-28T06:19:58.299Z,7448
2018-07-28T06:20:23.852Z,7508
2018-07-28T06:20:49.327Z,7556
2018-07-28T06:21:14.848Z,7588
2018-07-28T06:21:40.399Z,7616
2018-07-28T06:22:05.855Z,7636
2018-07-28T06:22:31.302Z,7640
2018-07-28T06:22:56.803Z,7640
2018-07-28T06:23:22.297Z,7652
2018-07-28T06:23:47.776Z,7692
2018-07-28T06:24:13.293Z,7748
2018-07-28T06:24:38.805Z,7804
2018-07-28T06:25:04.299Z,7868
2018-07-28T06:25:29.749Z,7932
2018-07-28T06:26:48.204Z,8528
2018-07-28T06:27:13.837Z,8748
2018-07-28T06:27:39.294Z,8964
2018-07-28T06:28:04.778Z,9172
2018-07-28T06:28:30.378Z,9308
2018-07-28T06:28:55.894Z,9404
2018-07-28T06:29:21.539Z,9528
2018-07-28T06:29:46.945Z,9684
2018-07-28T06:30:12.419Z,9812
2018-07-28T06:30:37.914Z,9916
2018-07-28T06:31:03.417Z,9980
2018-07-28T06:31:28.976Z,10092
2018-07-28T06:31:54.452Z,10192
2018-07-28T06:33:08.203Z,10684
2018-07-28T06:33:33.737Z,10936
2018-07-28T06:33:59.215Z,11152
2018-07-28T06:34:24.713Z,11268
2018-07-28T06:34:50.191Z,11336
2018-07-28T06:35:15.708Z,11324
2018-07-28T06:35:41.150Z,11384
2018-07-28T06:36:44.787Z,11484
2018-07-28T06:37:10.376Z,11528
2018-07-28T06:37:35.961Z,11552
2018-07-28T06:38:01.420Z,11568
2018-07-28T06:38:26.920Z,11612
2018-07-28T06:38:52.566Z,11612
2018-07-28T06:39:18.045Z,11652
2018-07-28T06:39:43.553Z,11644
2018-07-28T06:40:09.040Z,11672
2018-07-28T06:40:34.540Z,11644
2018-07-28T06:41:00.016Z,11636
2018-07-28T06:41:25.540Z,11672
2018-07-28T06:41:51.093Z,11704
2018-07-28T06:42:16.532Z,11088
2018-07-28T06:42:42.131Z,11752
2018-07-28T06:43:07.841Z,13124
2018-07-28T06:43:33.554Z,13636
2018-07-28T06:43:59.392Z,17472
2018-07-28T06:44:24.947Z,23744
2018-07-28T06:44:50.424Z,31840
2018-07-28T06:45:15.911Z,39744
2018-07-28T06:45:41.498Z,46464
2018-07-28T06:46:06.991Z,49984
2018-07-28T06:46:32.506Z,50336
2018-07-28T06:46:58.217Z,47808
2018-07-28T06:47:23.788Z,44416
2018-07-28T06:47:49.207Z,42208
2018-07-28T06:48:14.712Z,41856
2018-07-28T06:48:40.176Z,43168
2018-07-28T06:49:05.801Z,46144
2018-07-28T06:49:31.311Z,48960
2018-07-28T06:49:56.793Z,50528
2018-07-28T06:50:22.304Z,50880
2018-07-28T06:50:47.889Z,46560
2018-07-28T06:51:13.422Z,39264
2018-07-28T06:51:38.947Z,30464
2018-07-28T06:52:04.397Z,22496
2018-07-28T06:52:29.904Z,14944
2018-07-28T06:52:55.362Z,10516
2018-07-28T06:53:20.882Z,9632
2018-07-28T06:53:46.375Z,9232
2018-07-28T06:54:11.850Z,9000
2018-07-28T06:54:37.316Z,8812
2018-07-28T06:55:02.884Z,8668
2018-07-28T06:55:28.380Z,8532
2018-07-28T06:55:53.904Z,8420
2018-07-28T06:56:19.420Z,8320
2018-07-28T06:56:44.863Z,8228
2018-07-28T06:57:10.389Z,8144
2018-07-28T06:57:36.565Z,8056
2018-07-28T06:58:02.313Z,7956
2018-07-28T06:58:28.206Z,7880
2018-07-28T06:58:54.272Z,7800
2018-07-28T06:59:20.008Z,7732
2018-07-28T06:59:45.479Z,7676
2018-07-28T07:00:11.068Z,7624
2018-07-28T07:00:37.007Z,7572
2018-07-28T07:01:02.652Z,7520
2018-07-28T07:01:28.326Z,7464
2018-07-28T07:01:54.028Z,7420
2018-07-28T07:02:19.654Z,7352
2018-07-28T07:02:45.288Z,7308
2018-07-28T07:03:11.079Z,7268
2018-07-28T07:03:36.783Z,7228
2018-07-28T07:04:02.320Z,7184
2018-07-28T07:04:27.821Z,7156
2018-07-28T07:04:53.327Z,7116
2018-07-28T07:05:18.811Z,7104
2018-07-28T07:05:44.292Z,7080
2018-07-28T07:06:09.748Z,7068
2018-07-28T07:06:35.181Z,7060
2018-07-28T07:07:00.619Z,7068
2018-07-28T07:08:09.308Z,7164
2018-07-28T07:08:34.814Z,7200
2018-07-28T07:09:00.329Z,7236
2018-07-28T07:09:25.849Z,7216
2018-07-28T07:09:51.377Z,7320
2018-07-28T07:10:16.896Z,7248
2018-07-28T07:10:42.400Z,7384
2018-07-28T07:11:07.888Z,7408
2018-07-28T07:11:33.430Z,7464
2018-07-28T07:11:58.896Z,7536
2018-07-28T07:12:24.392Z,7632
2018-07-28T07:12:49.887Z,7728
2018-07-28T07:13:15.489Z,7840
2018-07-28T07:13:40.895Z,7928
2018-07-28T07:14:06.381Z,8028
2018-07-28T07:14:31.853Z,8040
2018-07-28T07:14:57.350Z,8248
2018-07-28T07:15:22.932Z,8620
2018-07-28T07:15:48.446Z,8868
2018-07-28T07:16:13.960Z,8020
2018-07-28T07:16:39.527Z,8500
2018-07-28T07:17:05.077Z,8304
2018-07-28T07:17:30.586Z,8500
2018-07-28T07:17:56.080Z,8744
2018-07-28T07:18:21.664Z,8232
2018-07-28T07:18:47.139Z,8072
2018-07-28T07:19:12.610Z,7956
2018-07-28T07:20:31.560Z,8968
2018-07-28T07:20:57.054Z,8920
2018-07-28T07:21:22.558Z,9092
2018-07-28T07:21:48.079Z,9432
2018-07-28T07:22:13.547Z,10292
2018-07-28T07:23:27.389Z,16864
2018-07-28T07:23:52.909Z,19584
2018-07-28T07:24:18.383Z,19136
2018-07-28T07:24:43.951Z,18304
2018-07-28T07:25:09.442Z,14488
2018-07-28T07:25:34.884Z,17792
2018-07-28T07:26:00.334Z,12532
2018-07-28T07:26:25.919Z,12300
2018-07-28T07:26:51.418Z,11700
2018-07-28T07:27:16.907Z,11064
2018-07-28T07:28:20.777Z,9764
2018-07-28T07:28:46.410Z,9316
2018-07-28T07:29:12.035Z,8904
2018-07-28T07:29:37.564Z,8472
2018-07-28T07:30:46.274Z,7644
2018-07-28T07:31:11.773Z,7984
2018-07-28T07:31:38.059Z,9408
2018-07-28T07:32:03.249Z,10036
2018-07-28T07:32:28.824Z,10632
2018-07-28T07:32:54.283Z,9896
2018-07-28T07:33:19.755Z,7628
2018-07-28T07:33:45.351Z,7912
2018-07-28T07:34:10.858Z,7880
2018-07-28T07:34:36.352Z,21088
2018-07-28T07:35:01.855Z,21376
2018-07-28T07:35:27.362Z,20608
2018-07-28T07:35:52.872Z,22144
2018-07-28T07:36:18.580Z,22240
2018-07-28T07:36:43.904Z,22272
2018-07-28T07:37:09.389Z,22016
2018-07-28T07:37:34.891Z,21888
2018-07-28T07:38:00.403Z,22016
2018-07-28T07:39:24.470Z,8504
2018-07-28T07:39:49.960Z,9232
2018-07-28T07:40:15.451Z,8820
2018-07-28T07:40:40.990Z,10188
2018-07-28T07:41:06.477Z,14140
2018-07-28T07:41:32.012Z,11160
2018-07-28T07:41:57.479Z,9328
2018-07-28T07:42:22.976Z,10296
2018-07-28T07:42:48.454Z,16512
2018-07-28T07:43:13.916Z,16384
2018-07-28T07:43:39.417Z,15968
2018-07-28T07:44:04.893Z,15772
2018-07-28T07:44:30.422Z,11436
2018-07-28T07:44:55.920Z,9776
2018-07-28T07:45:21.417Z,9624
2018-07-28T07:45:46.927Z,9840
2018-07-28T07:46:12.437Z,10248
2018-07-28T07:46:37.947Z,10716
2018-07-28T07:47:03.464Z,10984
2018-07-28T07:47:29.098Z,11108
2018-07-28T07:47:54.496Z,11348
2018-07-28T07:48:20.246Z,11496
2018-07-28T07:48:45.986Z,11724
2018-07-28T07:49:11.492Z,12348
2018-07-28T07:49:37.097Z,13604
2018-07-28T07:50:02.677Z,12532
2018-07-28T07:50:28.281Z,11428
2018-07-28T07:50:55.641Z,10932
2018-07-28T07:51:21.241Z,10696
2018-07-28T07:51:46.834Z,10680
2018-07-28T07:53:08.370Z,11376
2018-07-28T07:53:35.327Z,11768
2018-07-28T07:54:01.497Z,12000
2018-07-28T07:54:53.624Z,12300
2018-07-28T07:55:19.246Z,12180
2018-07-28T07:55:44.817Z,11888
2018-07-28T07:56:12.921Z,11572
2018-07-28T07:56:39.402Z,11436
2018-07-28T07:57:05.459Z,11464
2018-07-28T07:57:38.873Z,11588
2018-07-28T07:58:00.158Z,11804
2018-07-28T07:58:26.022Z,12124
2018-07-28T07:58:51.845Z,12472
2018-07-28T08:00:20.116Z,13372
2018-07-28T08:01:05.243Z,13544
2018-07-28T08:01:31.058Z,13760
2018-07-28T08:02:07.153Z,13884
2018-07-28T08:02:32.879Z,13856
2018-07-28T08:02:58.454Z,13880
2018-07-28T08:03:23.967Z,14080
2018-07-28T08:03:51.176Z,14400
2018-07-28T08:04:16.591Z,14748
2018-07-28T08:04:46.469Z,14824
2018-07-28T08:05:11.942Z,14620
2018-07-28T08:05:40.713Z,14516
2018-07-28T08:06:06.170Z,14420
2018-07-28T08:06:31.771Z,14396
2018-07-28T08:06:58.422Z,14420
2018-07-28T08:07:23.865Z,14392
2018-07-28T08:07:50.398Z,14324
2018-07-28T08:08:16.960Z,14200
2018-07-28T08:08:42.502Z,14120
